Time;durP1;ratioP1;P1;durP2;ratioP2;P2;SDS_P1;SDS_P2;PMS_P1;PMS_P2;Temp;Humidity;BMP_temperature;BMP_pressure;BME280_temperature;BME280_humidity;BME280_pressure;Samples;Min_cycle;Max_cycle;Signal;HPM_P1;HPM_P2
2022/03/09 00:01:23;;;;;;;50.63;9.65;;;;;;;0.98;100.00;98622.91;5007457;28;20147;-57
2022/03/09 00:03:48;;;;;;;35.90;7.00;;;;;;;1.25;100.00;98623.91;5005273;28;20031;-57
2022/03/09 00:06:14;;;;;;;42.03;8.55;;;;;;;1.14;100.00;98618.75;5004683;28;20064;-58
2022/03/09 00:08:39;;;;;;;45.22;9.52;;;;;;;1.11;100.00;98618.69;5005976;28;20129;-56
2022/03/09 00:11:04;;;;;;;45.47;10.00;;;;;;;0.96;100.00;98611.75;5004042;28;20045;-57
2022/03/09 00:13:30;;;;;;;54.40;11.68;;;;;;;0.70;100.00;98614.97;5004527;28;20025;-57
2022/03/09 00:15:55;;;;;;;35.10;6.65;;;;;;;0.92;100.00;98610.88;5004879;28;20037;-56
2022/03/09 00:18:20;;;;;;;43.78;8.50;;;;;;;0.74;100.00;98610.72;5005964;28;20036;-57
2022/03/09 00:20:46;;;;;;;45.55;7.97;;;;;;;1.01;100.00;98615.22;5004268;28;20034;-55
2022/03/09 00:23:11;;;;;;;38.50;7.13;;;;;;;0.95;100.00;98610.03;5005135;28;20021;-55
2022/03/09 00:25:37;;;;;;;34.20;8.20;;;;;;;0.94;100.00;98614.31;5004264;28;20077;-57
2022/03/09 00:28:02;;;;;;;45.03;10.27;;;;;;;0.65;100.00;98611.50;5007525;28;20130;-59
2022/03/09 00:30:28;;;;;;;40.80;10.07;;;;;;;0.63;100.00;98617.50;5002998;28;20033;-58
2022/03/09 00:32:53;;;;;;;50.35;9.98;;;;;;;0.83;100.00;98626.22;5005701;28;20108;-57
2022/03/09 00:35:18;;;;;;;28.73;5.53;;;;;;;1.12;100.00;98625.53;5004999;28;20021;-55
2022/03/09 00:37:44;;;;;;;35.60;5.53;;;;;;;1.30;100.00;98627.38;5005456;28;20030;-58
2022/03/09 00:40:09;;;;;;;48.30;10.13;;;;;;;0.67;100.00;98624.34;5007144;28;20033;-56
2022/03/09 00:42:38;;;;;;;47.90;10.45;;;;;;;0.68;100.00;98623.50;5005342;28;20531;-59
2022/03/09 00:45:06;;;;;;;57.45;8.98;;;;;;;0.53;100.00;98617.41;5004305;28;20409;-57
2022/03/09 00:47:31;;;;;;;36.75;8.40;;;;;;;0.45;100.00;98616.47;5005062;28;20542;-57
2022/03/09 00:49:57;;;;;;;42.58;8.27;;;;;;;0.60;100.00;98617.44;5004914;28;20692;-57
2022/03/09 00:52:22;;;;;;;39.15;7.40;;;;;;;0.86;100.00;98615.94;5003730;28;20092;-56
2022/03/09 00:54:48;;;;;;;57.00;9.38;;;;;;;0.92;100.00;98616.00;5004324;28;20037;-60
2022/03/09 00:57:14;;;;;;;46.63;10.80;;;;;;;0.22;100.00;98613.69;5003538;28;20034;-57
2022/03/09 00:59:39;;;;;;;39.33;8.20;;;;;;;0.63;100.00;98618.34;5004420;28;20029;-60
2022/03/09 01:02:05;;;;;;;45.03;6.57;;;;;;;1.27;100.00;98623.09;5003650;28;20034;-59
2022/03/09 01:04:30;;;;;;;37.75;6.55;;;;;;;1.21;100.00;98622.19;5003552;28;20030;-59
2022/03/09 01:06:55;;;;;;;44.00;8.35;;;;;;;0.89;100.00;98626.25;5004592;28;20037;-58
2022/03/09 01:09:21;;;;;;;47.65;10.68;;;;;;;0.55;100.00;98625.09;5007009;28;20033;-57
2022/03/09 01:11:46;;;;;;;36.58;8.52;;;;;;;0.21;100.00;98624.78;5005111;28;20530;-57
2022/03/09 01:14:12;;;;;;;39.08;10.80;;;;;;;0.09;100.00;98622.06;5003888;28;20029;-56
2022/03/09 01:16:37;;;;;;;46.08;11.18;;;;;;;-0.03;100.00;98617.69;5005456;28;20053;-59
2022/03/09 01:19:02;;;;;;;42.47;10.88;;;;;;;-0.09;100.00;98615.03;5006110;28;20480;-58
2022/03/09 01:21:28;;;;;;;36.22;8.93;;;;;;;0.06;100.00;98615.22;5004529;28;20439;-58
2022/03/09 01:23:53;;;;;;;40.50;7.35;;;;;;;0.35;100.00;98614.63;5004518;28;20052;-57
2022/03/09 01:26:18;;;;;;;31.50;5.40;;;;;;;0.94;100.00;98616.03;5005110;28;20045;-58
2022/03/09 01:28:44;;;;;;;35.13;6.22;;;;;;;0.56;100.00;98619.97;5005373;28;20030;-59
2022/03/09 01:31:09;;;;;;;29.50;5.20;;;;;;;1.33;100.00;98620.56;5003996;28;20125;-59
2022/03/09 01:33:34;;;;;;;40.60;8.57;;;;;;;0.83;100.00;98618.50;5006636;28;20033;-57
2022/03/09 01:36:00;;;;;;;40.10;8.45;;;;;;;0.50;100.00;98617.38;5007143;28;20034;-58
2022/03/09 01:38:25;;;;;;;35.78;6.10;;;;;;;1.18;100.00;98619.59;5009631;28;20034;-59
2022/03/09 01:40:50;;;;;;;19.77;4.88;;;;;;;0.99;100.00;98616.03;5008151;28;20080;-57
2022/03/09 01:43:16;;;;;;;33.00;5.32;;;;;;;1.20;100.00;98611.06;5007667;28;20110;-58
2022/03/09 01:45:41;;;;;;;30.23;5.88;;;;;;;1.34;100.00;98604.28;5006786;28;20042;-57
2022/03/09 01:48:07;;;;;;;30.70;6.00;;;;;;;0.81;100.00;98602.22;5009806;28;20609;-59
2022/03/09 01:50:32;;;;;;;35.60;6.80;;;;;;;1.15;100.00;98599.88;5006713;28;20169;-59
2022/03/09 01:52:59;;;;;;;30.05;6.25;;;;;;;1.53;100.00;98606.97;5008870;28;20026;-55
2022/03/09 01:55:25;;;;;;;34.55;9.40;;;;;;;0.69;100.00;98591.84;5006322;28;20167;-56
2022/03/09 01:57:50;;;;;;;40.20;9.90;;;;;;;-0.32;100.00;98587.44;5009001;28;20035;-56
2022/03/09 02:00:17;;;;;;;38.42;10.02;;;;;;;-0.31;100.00;98593.41;5007317;28;20022;-56
2022/03/09 02:02:43;;;;;;;42.47;9.45;;;;;;;-0.10;100.00;98596.22;5008497;28;20022;-56
2022/03/09 02:05:09;;;;;;;34.13;7.05;;;;;;;0.77;100.00;98590.19;5007335;28;20028;-57
2022/03/09 02:10:21;;;;;;;45.58;10.05;;;;;;;-0.01;100.00;98598.91;5008111;28;20095;-58
2022/03/09 02:12:46;;;;;;;42.22;10.30;;;;;;;-0.56;100.00;98597.38;5011627;28;20030;-58
2022/03/09 02:15:12;;;;;;;39.42;8.93;;;;;;;-0.30;100.00;98606.25;5005764;28;20108;-58
2022/03/09 02:17:37;;;;;;;37.80;9.20;;;;;;;-0.23;100.00;98602.91;5005995;28;21023;-59
2022/03/09 02:20:03;;;;;;;39.75;9.88;;;;;;;-0.32;100.00;98612.22;5008284;28;20034;-55
2022/03/09 02:22:38;;;;;;;35.90;6.78;;;;;;;-0.04;100.00;98610.81;5007361;28;20018;-59
2022/03/09 02:25:07;;;;;;;49.65;10.95;;;;;;;-0.27;100.00;98611.41;5008118;28;20030;-58
2022/03/09 02:27:32;;;;;;;42.28;9.88;;;;;;;-0.07;100.00;98613.38;5010019;28;20225;-57
2022/03/09 02:29:58;;;;;;;50.38;9.63;;;;;;;-0.22;100.00;98614.91;5007428;28;20108;-57
2022/03/09 02:32:23;;;;;;;44.78;9.38;;;;;;;-0.16;100.00;98608.13;5007232;28;20038;-58
2022/03/09 02:34:50;;;;;;;52.63;9.48;;;;;;;-0.27;100.00;98608.84;5007329;28;20678;-59
2022/03/09 02:37:15;;;;;;;41.80;8.65;;;;;;;-0.18;100.00;98614.91;5004873;28;20046;-56
2022/03/09 02:39:40;;;;;;;41.80;8.70;;;;;;;-0.13;100.00;98615.84;5008685;28;20095;-56
2022/03/09 02:42:08;;;;;;;38.10;6.65;;;;;;;0.04;100.00;98622.03;5007550;28;20116;-56
2022/03/09 02:44:33;;;;;;;41.90;6.53;;;;;;;0.82;100.00;98615.91;5006760;28;20044;-56
2022/03/09 02:46:59;;;;;;;40.63;8.15;;;;;;;0.61;100.00;98619.16;5005355;28;20053;-57
2022/03/09 02:49:25;;;;;;;41.35;9.35;;;;;;;0.06;100.00;98612.66;5005923;28;20030;-55
2022/03/09 02:51:51;;;;;;;35.83;7.65;;;;;;;0.40;100.00;98618.13;5005905;28;20038;-59
2022/03/09 02:54:16;;;;;;;27.00;4.80;;;;;;;0.86;100.00;98626.22;5006769;28;20087;-57
2022/03/09 02:56:42;;;;;;;37.65;6.85;;;;;;;0.94;100.00;98629.72;5004629;28;20080;-55
2022/03/09 02:59:07;;;;;;;34.45;6.40;;;;;;;1.21;100.00;98620.47;5005317;28;20069;-56
2022/03/09 03:01:32;;;;;;;34.78;7.70;;;;;;;0.84;100.00;98617.63;5005661;28;20040;-57
2022/03/09 03:03:58;;;;;;;41.45;9.70;;;;;;;-0.01;100.00;98616.00;5006014;28;20033;-55
2022/03/09 03:06:23;;;;;;;36.72;7.68;;;;;;;0.27;100.00;98616.28;5007822;28;20467;-56
2022/03/09 03:08:49;;;;;;;26.02;4.95;;;;;;;1.01;100.00;98624.63;5007704;28;20627;-56
2022/03/09 03:11:15;;;;;;;31.25;5.05;;;;;;;1.40;100.00;98628.28;5005918;28;20048;-59
2022/03/09 03:13:41;;;;;;;35.45;6.55;;;;;;;1.40;100.00;98625.72;5006282;28;20021;-56
2022/03/09 03:16:08;;;;;;;32.58;6.63;;;;;;;1.01;100.00;98616.91;5006029;28;20065;-56
2022/03/09 03:18:33;;;;;;;42.60;9.52;;;;;;;0.77;100.00;98621.00;5007865;28;20030;-57
2022/03/09 03:20:59;;;;;;;39.70;10.07;;;;;;;-0.31;100.00;98619.03;5006104;28;20420;-56
2022/03/09 03:23:26;;;;;;;33.90;6.75;;;;;;;0.55;100.00;98620.84;5003989;28;20535;-56
2022/03/09 03:25:53;;;;;;;33.28;8.43;;;;;;;0.74;100.00;98621.00;5005538;28;20037;-56
2022/03/09 03:28:19;;;;;;;34.20;6.15;;;;;;;1.27;100.00;98617.94;5004960;28;20033;-57
2022/03/09 03:30:45;;;;;;;37.67;6.22;;;;;;;1.31;100.00;98617.13;5005592;28;20037;-56
2022/03/09 03:33:11;;;;;;;35.03;7.95;;;;;;;0.64;100.00;98614.91;5006215;28;20029;-55
2022/03/09 03:35:36;;;;;;;39.58;9.35;;;;;;;0.31;100.00;98620.59;5004678;28;20038;-57
2022/03/09 03:38:02;;;;;;;35.47;7.30;;;;;;;-0.06;100.00;98617.63;5005820;28;20037;-56
2022/03/09 03:40:27;;;;;;;40.08;10.25;;;;;;;-0.76;100.00;98615.91;5006259;28;20033;-57
2022/03/09 03:42:53;;;;;;;38.08;7.63;;;;;;;-0.30;100.00;98619.06;5005307;28;20425;-56
2022/03/09 03:45:18;;;;;;;30.60;5.85;;;;;;;0.25;100.00;98625.69;5004755;28;20033;-58
2022/03/09 03:47:43;;;;;;;40.00;9.07;;;;;;;-0.31;100.00;98619.03;5005962;28;20476;-57
2022/03/09 03:50:09;;;;;;;36.92;8.68;;;;;;;-0.28;100.00;98622.50;5005114;28;20037;-55
2022/03/09 03:52:34;;;;;;;40.42;6.97;;;;;;;-0.01;100.00;98616.84;5004766;28;20030;-55
2022/03/09 03:55:00;;;;;;;45.53;8.15;;;;;;;0.02;100.00;98623.72;5004260;28;20140;-58
2022/03/09 03:57:25;;;;;;;38.67;9.25;;;;;;;-0.17;100.00;98620.06;5003978;28;20125;-57
2022/03/09 03:59:50;;;;;;;39.95;7.18;;;;;;;0.31;100.00;98628.28;5005413;28;20117;-57
2022/03/09 04:02:16;;;;;;;29.27;5.40;;;;;;;0.81;100.00;98627.91;5005097;28;20038;-56
2022/03/09 04:04:42;;;;;;;40.72;9.48;;;;;;;0.16;100.00;98629.00;5007017;28;20136;-56
2022/03/09 04:07:07;;;;;;;39.05;8.80;;;;;;;-0.04;100.00;98624.53;5005891;28;20528;-56
2022/03/09 04:09:32;;;;;;;29.98;6.32;;;;;;;0.21;100.00;98629.91;5006845;28;20032;-55
2022/03/09 04:11:57;;;;;;;44.20;9.73;;;;;;;-0.20;100.00;98631.16;5003895;28;20030;-56
2022/03/09 04:14:23;;;;;;;35.80;6.05;;;;;;;0.47;100.00;98639.56;5004958;28;20040;-56
2022/03/09 04:16:49;;;;;;;27.77;4.97;;;;;;;0.86;100.00;98645.91;5005097;28;20033;-56
2022/03/09 04:19:15;;;;;;;37.60;6.22;;;;;;;1.25;100.00;98645.34;5005611;28;20048;-56
2022/03/09 04:21:40;;;;;;;26.80;5.13;;;;;;;1.06;100.00;98646.06;5005324;28;20421;-57
2022/03/09 04:24:06;;;;;;;42.95;9.60;;;;;;;-0.15;100.00;98631.22;5003895;28;20038;-57
2022/03/09 04:26:32;;;;;;;36.53;8.68;;;;;;;-0.33;100.00;98647.25;5003166;28;20076;-55
2022/03/09 04:28:57;;;;;;;27.20;5.60;;;;;;;0.39;100.00;98639.50;5005512;28;20029;-58
2022/03/09 04:31:22;;;;;;;31.15;5.95;;;;;;;0.65;100.00;98638.91;5005790;28;20392;-55
2022/03/09 04:33:48;;;;;;;34.38;8.50;;;;;;;-0.22;100.00;98644.78;5006496;28;20748;-56
2022/03/09 04:36:13;;;;;;;38.72;9.82;;;;;;;-0.70;100.00;98645.88;5005206;28;20738;-57
2022/03/09 04:38:38;;;;;;;39.85;9.63;;;;;;;-0.99;100.00;98649.72;5006580;28;20034;-57
2022/03/09 04:41:04;;;;;;;40.38;8.48;;;;;;;-1.20;100.00;98659.63;5005591;28;20069;-58
2022/03/09 04:43:29;;;;;;;32.53;5.43;;;;;;;0.31;100.00;98654.84;5004688;28;20029;-58
2022/03/09 04:45:55;;;;;;;35.00;6.65;;;;;;;0.34;100.00;98659.13;5004061;28;20069;-57
2022/03/09 04:48:20;;;;;;;29.75;5.50;;;;;;;0.28;100.00;98661.63;5003364;28;20041;-56
2022/03/09 04:50:45;;;;;;;30.52;5.40;;;;;;;0.48;100.00;98665.28;5005905;28;20050;-58
2022/03/09 04:53:11;;;;;;;31.30;6.63;;;;;;;0.77;100.00;98662.09;5004260;28;20475;-57
2022/03/09 04:55:36;;;;;;;38.20;10.43;;;;;;;-0.98;100.00;98677.03;5002212;28;20120;-55
2022/03/09 04:58:02;;;;;;;37.80;8.65;;;;;;;-0.65;100.00;98670.72;5005597;28;20029;-55
2022/03/09 05:00:27;;;;;;;42.40;6.50;;;;;;;0.58;100.00;98672.19;5004590;28;20040;-56
2022/03/09 05:02:52;;;;;;;43.97;12.38;;;;;;;-0.37;100.00;98672.81;5007729;28;20128;-56
2022/03/09 05:05:18;;;;;;;29.83;7.03;;;;;;;0.01;100.00;98662.19;5004135;28;20104;-57
2022/03/09 05:07:43;;;;;;;35.78;8.75;;;;;;;0.34;100.00;98667.69;5006622;28;20656;-56
2022/03/09 05:10:10;;;;;;;35.90;7.18;;;;;;;0.64;100.00;98665.41;5010258;28;20025;-56
2022/03/09 05:12:35;;;;;;;55.30;12.18;;;;;;;-0.59;100.00;98665.69;5008878;28;20484;-54
2022/03/09 05:15:01;;;;;;;41.67;10.07;;;;;;;-0.50;100.00;98667.50;5009522;28;20032;-56
2022/03/09 05:17:26;;;;;;;28.67;5.10;;;;;;;0.88;100.00;98675.03;5008064;28;20055;-55
2022/03/09 05:19:52;;;;;;;29.05;6.47;;;;;;;0.55;100.00;98682.44;5008097;28;20034;-56
2022/03/09 05:22:17;;;;;;;32.97;8.90;;;;;;;0.37;100.00;98680.56;5006999;28;20061;-57
2022/03/09 05:24:42;;;;;;;49.72;10.18;;;;;;;0.30;100.00;98689.03;5005035;28;20040;-57
2022/03/09 05:27:08;;;;;;;44.80;9.43;;;;;;;-0.37;100.00;98691.59;5008673;28;20041;-57
2022/03/09 05:29:33;;;;;;;38.53;8.75;;;;;;;0.13;100.00;98703.34;5004447;28;20025;-57
2022/03/09 05:31:59;;;;;;;36.25;7.28;;;;;;;0.57;100.00;98697.88;5006171;28;20037;-56
2022/03/09 05:34:24;;;;;;;36.25;7.50;;;;;;;0.38;100.00;98709.63;5006308;28;20038;-57
2022/03/09 05:36:49;;;;;;;35.20;9.60;;;;;;;-0.56;100.00;98705.00;5006977;28;20161;-56
2022/03/09 05:39:15;;;;;;;36.83;9.25;;;;;;;-0.52;100.00;98701.66;5009789;28;20033;-57
2022/03/09 05:41:40;;;;;;;50.17;10.23;;;;;;;-0.90;100.00;98704.47;5007038;28;20030;-56
2022/03/09 05:44:06;;;;;;;36.67;7.60;;;;;;;-0.34;100.00;98707.03;5007468;28;20030;-57
2022/03/09 05:46:32;;;;;;;50.15;11.38;;;;;;;-0.26;100.00;98705.47;5006365;28;20041;-56
2022/03/09 05:48:58;;;;;;;47.80;11.50;;;;;;;-1.34;100.00;98708.03;5009617;28;20052;-57
2022/03/09 05:51:23;;;;;;;48.78;11.65;;;;;;;-1.40;100.00;98721.59;5009507;28;20397;-57
2022/03/09 05:53:49;;;;;;;51.35;9.80;;;;;;;-1.06;100.00;98718.75;5009268;28;20099;-55
2022/03/09 05:56:14;;;;;;;53.10;10.38;;;;;;;-1.03;100.00;98714.53;5007102;28;20037;-57
2022/03/09 05:58:40;;;;;;;38.03;7.55;;;;;;;-0.67;100.00;98728.75;5006049;28;20396;-57
2022/03/09 06:01:05;;;;;;;54.88;9.43;;;;;;;-0.38;100.00;98714.69;5008549;28;20042;-57
2022/03/09 06:03:30;;;;;;;39.85;9.02;;;;;;;-1.02;100.00;98723.94;5007426;28;20044;-57
2022/03/09 06:05:56;;;;;;;43.50;8.68;;;;;;;-0.77;100.00;98732.03;5006781;28;20049;-58
2022/03/09 06:08:21;;;;;;;47.65;10.52;;;;;;;-0.63;100.00;98730.53;5007340;28;20087;-56
2022/03/09 06:10:46;;;;;;;48.92;11.38;;;;;;;-0.49;100.00;98727.34;5008027;28;20034;-55
2022/03/09 06:13:12;;;;;;;55.75;12.15;;;;;;;-0.04;100.00;98721.09;5007132;28;20029;-58
2022/03/09 06:15:37;;;;;;;41.78;10.77;;;;;;;-0.21;100.00;98726.00;5007192;28;20033;-57
2022/03/09 06:18:03;;;;;;;57.60;11.73;;;;;;;-0.53;100.00;98726.44;5007170;28;20107;-57
2022/03/09 06:20:28;;;;;;;50.33;10.75;;;;;;;-0.44;100.00;98720.53;5005741;28;20464;-58
2022/03/09 06:22:54;;;;;;;48.85;11.05;;;;;;;0.80;100.00;98728.91;5007005;28;20155;-55
2022/03/09 06:25:20;;;;;;;64.38;13.23;;;;;;;2.82;100.00;98723.19;5005943;28;20033;-57
2022/03/09 06:27:50;;;;;;;53.17;11.13;;;;;;;3.26;100.00;98730.09;5007565;28;20033;-56
2022/03/09 06:30:16;;;;;;;54.35;11.60;;;;;;;5.27;100.00;98729.31;5005188;28;20103;-58
2022/03/09 06:32:43;;;;;;;59.67;12.27;;;;;;;5.28;100.00;98725.88;5003998;28;20026;-56
2022/03/09 06:35:10;;;;;;;43.72;11.13;;;;;;;4.99;77.79;98729.53;5006842;28;20539;-56
2022/03/09 06:37:35;;;;;;;62.85;12.23;;;;;;;5.83;76.87;98725.38;5007144;28;20034;-56
2022/03/09 06:40:02;;;;;;;53.70;13.98;;;;;;;7.95;65.00;98729.25;5003811;28;20033;-57
2022/03/09 06:42:28;;;;;;;46.42;12.95;;;;;;;8.52;58.27;98728.16;5005402;28;20114;-56
2022/03/09 06:44:53;;;;;;;56.60;13.52;;;;;;;9.35;54.85;98731.47;5005748;28;20642;-58
2022/03/09 06:47:19;;;;;;;42.53;13.27;;;;;;;9.59;51.37;98735.25;5005527;28;20033;-56
2022/03/09 06:49:44;;;;;;;40.00;12.90;;;;;;;10.28;49.18;98734.31;5005255;28;20835;-56
2022/03/09 06:52:10;;;;;;;64.95;21.70;;;;;;;11.44;45.67;98729.06;5008868;28;20041;-58
2022/03/09 06:54:35;;;;;;;60.30;20.08;;;;;;;11.89;44.24;98736.25;5005158;28;20040;-56
2022/03/09 06:57:00;;;;;;;50.72;19.67;;;;;;;12.03;41.92;98736.66;5006246;28;20037;-57
2022/03/09 06:59:26;;;;;;;59.13;21.15;;;;;;;11.30;42.74;98742.56;5004963;28;20061;-58
2022/03/09 07:01:51;;;;;;;38.40;13.40;;;;;;;12.43;42.78;98737.84;5002829;28;20742;-59
2022/03/09 07:04:16;;;;;;;30.70;10.32;;;;;;;13.99;46.45;98737.81;5003438;28;20025;-58
2022/03/09 07:06:42;;;;;;;33.08;11.70;;;;;;;13.32;40.69;98732.75;5002282;28;20166;-59
2022/03/09 07:09:07;;;;;;;31.38;11.32;;;;;;;14.31;37.81;98732.91;5008149;28;20030;-58
2022/03/09 07:11:32;;;;;;;32.72;11.13;;;;;;;13.33;38.22;98735.31;5006012;28;20038;-60
2022/03/09 07:13:58;;;;;;;29.95;10.70;;;;;;;14.26;38.05;98737.50;5005435;28;20043;-59
2022/03/09 07:16:23;;;;;;;33.17;11.30;;;;;;;15.98;36.13;98733.78;5005065;28;20045;-59
2022/03/09 07:18:49;;;;;;;36.78;11.13;;;;;;;16.12;34.85;98740.94;5006247;28;20030;-59
2022/03/09 07:21:14;;;;;;;31.38;10.95;;;;;;;15.54;34.92;98734.19;5006911;28;20140;-57
2022/03/09 07:23:40;;;;;;;28.13;10.07;;;;;;;15.92;34.31;98732.31;5003043;28;20446;-58
2022/03/09 07:26:05;;;;;;;29.80;10.27;;;;;;;16.44;33.10;98731.34;5002894;28;20903;-58
2022/03/09 07:28:31;;;;;;;23.70;10.30;;;;;;;16.93;33.30;98738.44;5005150;28;20132;-58
2022/03/09 07:30:57;;;;;;;30.65;11.18;;;;;;;15.94;33.51;98746.22;5003211;28;20140;-58
2022/03/09 07:33:22;;;;;;;25.10;9.73;;;;;;;17.73;31.71;98744.44;5003797;28;20022;-59
2022/03/09 07:35:48;;;;;;;25.73;10.38;;;;;;;17.11;32.17;98747.94;5004573;28;20033;-59
2022/03/09 07:38:14;;;;;;;25.17;10.82;;;;;;;17.27;31.79;98757.63;5004240;28;20195;-57
2022/03/09 07:40:40;;;;;;;24.20;10.13;;;;;;;18.84;29.92;98746.56;5004080;28;20041;-60
2022/03/09 07:43:05;;;;;;;23.73;9.85;;;;;;;17.56;31.79;98748.06;5006289;28;20071;-58
2022/03/09 07:45:30;;;;;;;24.90;10.70;;;;;;;19.87;29.11;98744.34;5004786;28;20033;-59
2022/03/09 07:47:56;;;;;;;24.85;10.02;;;;;;;17.03;31.80;98747.50;5003749;28;20408;-60
2022/03/09 07:50:22;;;;;;;23.02;9.77;;;;;;;19.26;29.48;98749.19;5003520;28;20029;-58
2022/03/09 07:52:48;;;;;;;22.13;9.75;;;;;;;19.02;29.75;98747.19;5006154;28;20330;-60
2022/03/09 07:55:14;;;;;;;30.00;11.07;;;;;;;18.37;29.99;98741.56;5004549;28;20126;-60
2022/03/09 07:57:40;;;;;;;24.27;10.52;;;;;;;18.77;30.39;98741.75;5007761;28;20036;-58
2022/03/09 08:00:06;;;;;;;24.10;10.65;;;;;;;20.16;28.31;98739.72;5004801;28;20450;-59
2022/03/09 08:02:31;;;;;;;19.58;9.70;;;;;;;18.42;30.11;98750.06;5006763;28;20053;-59
2022/03/09 08:04:57;;;;;;;27.75;10.15;;;;;;;19.25;29.38;98748.34;5005721;28;20637;-58
2022/03/09 08:07:22;;;;;;;23.50;10.60;;;;;;;19.22;28.64;98745.91;5004832;28;20030;-58
2022/03/09 08:09:48;;;;;;;21.10;9.93;;;;;;;19.53;28.39;98751.00;5004651;28;20030;-57
2022/03/09 08:12:14;;;;;;;21.02;9.50;;;;;;;19.46;28.51;98745.25;5001109;28;20049;-58
2022/03/09 08:14:40;;;;;;;20.02;9.88;;;;;;;19.39;28.91;98749.25;5006165;28;20036;-59
2022/03/09 08:17:05;;;;;;;21.85;10.43;;;;;;;19.88;27.99;98739.88;5004528;28;20124;-57
2022/03/09 08:19:31;;;;;;;21.48;9.77;;;;;;;21.47;26.36;98737.59;5006062;28;20550;-59
2022/03/09 08:21:56;;;;;;;20.85;10.50;;;;;;;18.14;29.82;98748.22;5005093;28;20247;-58
2022/03/09 08:24:21;;;;;;;21.75;10.20;;;;;;;21.52;26.03;98740.72;5004144;28;20049;-57
2022/03/09 08:26:47;;;;;;;23.17;10.00;;;;;;;21.37;25.85;98742.66;5003919;28;20044;-58
2022/03/09 08:29:12;;;;;;;20.00;9.82;;;;;;;17.46;29.84;98745.09;5007583;28;20030;-58
2022/03/09 08:31:38;;;;;;;22.10;9.82;;;;;;;20.48;26.84;98744.56;5005291;28;20030;-58
2022/03/09 08:34:03;;;;;;;22.73;9.95;;;;;;;20.37;26.94;98736.53;5004124;28;20021;-58
2022/03/09 08:36:28;;;;;;;19.70;9.68;;;;;;;20.05;26.60;98739.59;5003817;28;20042;-58
2022/03/09 08:38:55;;;;;;;22.45;9.95;;;;;;;21.24;25.72;98732.13;5005066;28;20053;-57
2022/03/09 08:41:24;;;;;;;31.40;10.45;;;;;;;21.09;26.48;98727.94;5005675;28;20922;-57
2022/03/09 08:43:50;;;;;;;22.95;9.98;;;;;;;22.74;25.00;98729.63;5008435;28;20734;-56
2022/03/09 08:46:15;;;;;;;24.42;9.93;;;;;;;21.38;25.72;98729.28;5008066;28;20160;-59
2022/03/09 08:48:40;;;;;;;27.15;10.50;;;;;;;18.05;28.01;98728.53;5010198;28;20100;-58
2022/03/09 08:51:06;;;;;;;22.95;9.77;;;;;;;16.49;29.83;98726.69;5010797;28;20038;-58
2022/03/09 08:53:32;;;;;;;25.67;10.15;;;;;;;20.16;26.85;98723.81;5010152;28;20033;-57
2022/03/09 08:55:57;;;;;;;26.88;10.35;;;;;;;20.77;26.41;98728.47;5007285;28;20133;-57
2022/03/09 08:58:23;;;;;;;24.48;9.63;;;;;;;21.74;25.35;98724.91;5008348;28;20092;-57
2022/03/09 09:00:48;;;;;;;22.42;9.43;;;;;;;22.55;24.42;98726.72;5009289;28;20231;-59
2022/03/09 09:03:13;;;;;;;23.58;9.25;;;;;;;18.75;27.93;98728.63;5010194;28;20422;-58
2022/03/09 09:05:39;;;;;;;20.98;9.63;;;;;;;18.07;28.31;98738.03;5007291;28;20073;-58
2022/03/09 09:08:05;;;;;;;24.70;9.90;;;;;;;16.14;30.79;98736.47;5006633;28;20034;-58
2022/03/09 09:10:31;;;;;;;23.92;9.82;;;;;;;15.97;30.83;98738.19;5009242;28;20411;-58
2022/03/09 09:12:58;;;;;;;27.13;10.52;;;;;;;18.30;28.31;98734.00;5007934;28;20425;-57
2022/03/09 09:15:24;;;;;;;25.45;10.25;;;;;;;16.82;29.24;98730.19;5007118;28;20025;-58
2022/03/09 09:18:00;;;;;;;25.63;9.73;;;;;;;18.67;27.93;98726.47;5008109;28;20030;-57
2022/03/09 09:20:26;;;;;;;23.27;9.38;;;;;;;19.33;27.92;98734.63;5008103;28;20034;-57
2022/03/09 09:22:52;;;;;;;24.25;9.88;;;;;;;18.47;27.83;98724.19;5008132;28;20017;-58
2022/03/09 09:25:19;;;;;;;29.25;10.85;;;;;;;18.27;28.19;98725.44;5006699;28;20029;-57
2022/03/09 09:27:44;;;;;;;24.10;9.75;;;;;;;19.66;26.96;98722.75;5006673;28;20029;-56
2022/03/09 09:30:10;;;;;;;25.08;9.50;;;;;;;17.99;29.09;98720.97;5006138;28;20037;-58
2022/03/09 09:32:35;;;;;;;25.52;9.32;;;;;;;17.77;28.67;98724.81;5009984;28;20381;-59
2022/03/09 09:35:01;;;;;;;24.17;9.45;;;;;;;18.45;27.53;98720.78;5007665;28;20022;-57
2022/03/09 09:37:26;;;;;;;25.05;9.68;;;;;;;20.21;26.59;98716.38;5006925;28;20099;-59
2022/03/09 09:39:53;;;;;;;21.55;9.50;;;;;;;20.98;25.40;98705.69;5008201;28;20533;-58
2022/03/09 09:42:21;;;;;;;24.60;10.00;;;;;;;17.99;28.03;98713.03;5009733;28;20025;-57
2022/03/09 09:44:47;;;;;;;29.50;9.80;;;;;;;19.43;26.44;98719.84;5006377;28;20080;-58
2022/03/09 09:47:14;;;;;;;23.55;9.38;;;;;;;18.29;27.20;98705.06;5007790;28;20516;-58
2022/03/09 09:49:40;;;;;;;23.88;9.57;;;;;;;18.69;27.16;98707.84;5009694;28;20147;-59
2022/03/09 09:52:07;;;;;;;23.30;9.55;;;;;;;20.65;25.55;98708.13;5007228;28;20045;-59
2022/03/09 09:54:33;;;;;;;25.27;9.65;;;;;;;17.31;27.71;98702.00;5005911;28;20030;-59
2022/03/09 09:56:59;;;;;;;27.55;8.80;;;;;;;20.65;24.61;98697.53;5006778;28;20409;-59
2022/03/09 09:59:25;;;;;;;22.25;8.80;;;;;;;18.79;26.21;98708.13;5008172;28;20041;-58
2022/03/09 10:01:50;;;;;;;19.55;8.52;;;;;;;18.03;26.22;98698.72;5006002;28;20096;-57
2022/03/09 10:04:16;;;;;;;22.90;8.55;;;;;;;15.89;27.84;98700.88;5006693;28;20066;-58
2022/03/09 10:06:41;;;;;;;21.42;8.77;;;;;;;18.42;25.51;98702.50;5006788;28;20094;-59
2022/03/09 10:09:11;;;;;;;21.65;8.20;;;;;;;16.28;26.41;98694.47;5007036;28;20037;-59
2022/03/09 10:11:48;;;;;;;24.65;8.75;;;;;;;18.74;25.00;98699.63;5007508;28;20134;-56
2022/03/09 10:14:15;;;;;;;22.65;8.35;;;;;;;18.43;25.51;98696.28;5006983;28;20083;-58
2022/03/09 10:17:00;;;;;;;23.38;8.32;;;;;;;18.16;24.93;98691.75;5006359;28;20129;-57
2022/03/09 10:19:47;;;;;;;23.40;8.32;;;;;;;17.64;24.93;98692.19;5007657;28;20028;-58
2022/03/09 10:22:22;;;;;;;22.65;8.20;;;;;;;16.82;25.33;98688.94;5006733;28;20773;-57
2022/03/09 10:24:48;;;;;;;31.15;9.02;;;;;;;16.58;25.97;98691.13;5006467;28;20088;-57
2022/03/09 10:27:32;;;;;;;26.83;8.80;;;;;;;17.94;24.61;98688.69;5006214;28;20039;-57
2022/03/09 10:29:57;;;;;;;26.08;8.20;;;;;;;16.99;25.67;98688.00;5005247;28;20061;-57
2022/03/09 10:32:41;;;;;;;23.17;7.75;;;;;;;17.31;24.51;98699.38;5006495;28;20121;-57
2022/03/09 10:35:06;;;;;;;27.73;8.50;;;;;;;18.48;23.47;98688.91;5006980;28;20064;-55
2022/03/09 10:37:42;;;;;;;23.90;8.00;;;;;;;17.28;24.65;98696.06;5008379;28;20164;-58
2022/03/09 10:40:16;;;;;;;24.02;8.18;;;;;;;16.03;26.19;98694.03;5008384;28;20040;-58
2022/03/09 10:42:42;;;;;;;21.33;7.45;;;;;;;16.80;25.15;98687.28;5007925;28;20022;-57
2022/03/09 10:45:08;;;;;;;27.85;8.45;;;;;;;16.14;25.55;98681.19;5005964;28;20030;-58
2022/03/09 10:47:40;;;;;;;23.02;7.70;;;;;;;18.23;24.56;98685.16;5008131;28;20077;-58
2022/03/09 10:50:22;;;;;;;25.00;8.75;;;;;;;14.45;28.02;98683.28;5006444;28;21032;-57
2022/03/09 10:52:52;;;;;;;25.95;8.30;;;;;;;15.85;26.98;98680.94;5010018;28;20060;-59
2022/03/09 10:55:25;;;;;;;24.48;8.52;;;;;;;16.41;27.02;98678.84;5005405;28;20033;-58
2022/03/09 10:57:52;;;;;;;24.95;9.35;;;;;;;15.23;28.92;98675.25;5007049;28;20474;-59
2022/03/09 11:00:45;;;;;;;26.35;9.50;;;;;;;17.21;27.42;98673.63;5007280;28;20682;-57
2022/03/09 11:03:22;;;;;;;29.65;9.90;;;;;;;16.91;27.60;98674.44;5000465;28;20037;-59
2022/03/09 11:05:55;;;;;;;25.88;9.32;;;;;;;18.80;26.02;98671.03;5004481;28;20054;-58
2022/03/09 11:08:28;;;;;;;29.92;9.90;;;;;;;18.26;25.62;98671.75;5008407;28;20033;-58
2022/03/09 11:10:58;;;;;;;25.45;8.90;;;;;;;17.38;29.08;98665.56;5008788;28;20037;-58
2022/03/09 11:13:24;;;;;;;31.63;9.63;;;;;;;14.66;29.19;98667.47;5006226;28;20071;-58
2022/03/09 11:15:50;;;;;;;25.50;8.73;;;;;;;14.78;27.96;98673.94;5004384;28;20441;-58
2022/03/09 11:18:21;;;;;;;26.83;8.70;;;;;;;15.10;28.50;98667.13;5005161;28;20038;-57
2022/03/09 11:20:48;;;;;;;24.95;8.95;;;;;;;15.87;27.94;98663.28;5005232;28;20168;-58